Bandon, Indiana
Current Conditions -  °F | °C
As of 6:15 PM on Monday 24 Nov 2014 (Local Time) from KHNB Reporting Station
Overcast Overcast  
Wind Chill:   Ceiling: 6000
Heat Index:   Visibility: 10mi
Dew Point:   Wind: 6mph
Humidity: 76%   Direction: 270°W
Pressure: 29.9"   Gusts: NA
Location:  38.1703°N, 86.5482°W
Report Text: KHNB 250015Z AUTO 27005KT 10SM FEW044 OVC060 06/02 A2990 RMK AO1
Loading
Personal Weather Stations






























Interactive Weather Map New forecast layout! Learn more

10-Day Weather Forecast

Advertisements
Track Severe Weather on mobile